Time,TemperatureF,DewpointF,PressureIn,WindDirection,WindDirectionDegrees,WindSpeedMPH,WindSpeedGustMPH,Humidity,HourlyPrecipIn,Conditions,Clouds,dailyrainin,SoftwareType,DateUTC
2013-07-06 00:00:00,76.0,65.1,29.87,ESE,112,3.0,5.0,69,0.00,,---,0.00,VWS V14.00,2013-07-06 05:00:00,
2013-07-06 00:05:00,75.9,65.0,29.87,ESE,112,3.0,6.0,69,0.00,,---,0.00,VWS V14.00,2013-07-06 05:05:00,
2013-07-06 00:15:00,75.8,64.9,29.87,ESE,112,4.0,7.0,69,0.00,,---,0.00,VWS V14.00,2013-07-06 05:15:00,
2013-07-06 00:20:00,75.7,64.8,29.87,ESE,112,4.0,6.0,69,0.00,,---,0.00,VWS V14.00,2013-07-06 05:20:00,
2013-07-06 00:25:00,75.6,64.7,29.87,SE,135,5.0,9.0,69,0.00,,---,0.00,VWS V14.00,2013-07-06 05:25:00,
2013-07-06 00:30:00,75.5,64.6,29.87,SE,135,4.0,6.0,69,0.00,,---,0.00,VWS V14.00,2013-07-06 05:30:00,
2013-07-06 00:35:00,75.5,64.2,29.87,SE,135,4.0,6.0,68,0.00,,---,0.00,VWS V14.00,2013-07-06 05:35:00,
2013-07-06 00:40:00,75.5,64.2,29.87,SE,135,4.0,9.0,68,0.00,,---,0.00,VWS V14.00,2013-07-06 05:40:00,
2013-07-06 00:50:00,75.5,64.2,29.87,SE,135,4.0,7.0,68,0.00,,---,0.00,VWS V14.00,2013-07-06 05:50:00,
2013-07-06 01:00:00,75.4,64.1,29.87,SE,135,4.0,7.0,68,0.00,,---,0.00,VWS V14.00,2013-07-06 06:00:00,
2013-07-06 01:05:00,75.3,64.0,29.87,SE,135,4.0,7.0,68,0.00,,---,0.00,VWS V14.00,2013-07-06 06:05:00,
2013-07-06 01:10:00,75.1,63.8,29.87,SE,135,4.0,7.0,68,0.00,,---,0.00,VWS V14.00,2013-07-06 06:10:00,
2013-07-06 01:15:00,75.0,63.7,29.86,SE,135,4.0,7.0,68,0.00,,---,0.00,VWS V14.00,2013-07-06 06:15:00,
2013-07-06 01:50:00,74.3,63.1,29.86,SE,135,5.0,9.0,68,0.00,,---,0.00,VWS V14.00,2013-07-06 06:50:00,
2013-07-06 01:55:00,74.2,63.0,29.86,SE,135,6.0,11.0,68,0.00,,---,0.00,VWS V14.00,2013-07-06 06:55:00,
2013-07-06 02:05:00,74.2,63.0,29.86,SE,135,5.0,9.0,68,0.00,,---,0.00,VWS V14.00,2013-07-06 07:05:00,
2013-07-06 02:10:00,74.1,62.9,29.86,SE,135,4.0,7.0,68,0.00,,---,0.00,VWS V14.00,2013-07-06 07:10:00,
2013-07-06 02:20:00,74.0,62.8,29.86,SE,135,4.0,7.0,68,0.00,,---,0.00,VWS V14.00,2013-07-06 07:20:00,
2013-07-06 02:25:00,73.9,62.7,29.86,SE,135,4.0,9.0,68,0.00,,---,0.00,VWS V14.00,2013-07-06 07:25:00,
2013-07-06 02:30:00,73.8,62.6,29.86,SE,135,5.0,10.0,68,0.00,,---,0.00,VWS V14.00,2013-07-06 07:30:00,
2013-07-06 02:35:00,73.6,62.4,29.86,SE,135,4.0,8.0,68,0.00,,---,0.00,VWS V14.00,2013-07-06 07:35:00,
2013-07-06 03:05:00,73.3,62.1,29.86,SE,135,5.0,10.0,68,0.00,,---,0.00,VWS V14.00,2013-07-06 08:05:00,
2013-07-06 03:10:00,73.2,62.0,29.86,SE,135,6.0,10.0,68,0.00,,---,0.00,VWS V14.00,2013-07-06 08:10:00,
2013-07-06 03:15:00,73.1,61.9,29.86,SE,135,5.0,9.0,68,0.00,,---,0.00,VWS V14.00,2013-07-06 08:15:00,
2013-07-06 03:20:00,73.1,61.9,29.86,SSE,158,6.0,10.0,68,0.00,,---,0.00,VWS V14.00,2013-07-06 08:20:00,
2013-07-06 03:25:00,73.0,61.8,29.86,SSE,158,6.0,11.0,68,0.00,,---,0.00,VWS V14.00,2013-07-06 08:25:00,
2013-07-06 03:30:00,73.0,61.8,29.86,SSE,158,7.0,12.0,68,0.00,,---,0.00,VWS V14.00,2013-07-06 08:30:00,
2013-07-06 03:40:00,73.0,61.8,29.86,SSE,158,7.0,11.0,68,0.00,,---,0.00,VWS V14.00,2013-07-06 08:40:00,
2013-07-06 03:45:00,72.9,61.7,29.86,SSE,158,6.0,10.0,68,0.00,,---,0.00,VWS V14.00,2013-07-06 08:45:00,
2013-07-06 04:00:00,73.0,61.8,29.86,SSE,158,7.0,12.0,68,0.00,,---,0.00,VWS V14.00,2013-07-06 09:00:00,
2013-07-06 04:05:00,73.0,61.8,29.86,SSE,158,7.0,13.0,68,0.00,,---,0.00,VWS V14.00,2013-07-06 09:05:00,
2013-07-06 04:10:00,73.0,61.8,29.86,SSE,158,6.0,11.0,68,0.00,,---,0.00,VWS V14.00,2013-07-06 09:10:00,
2013-07-06 04:15:00,73.0,61.8,29.86,SSE,158,5.0,10.0,68,0.00,,---,0.00,VWS V14.00,2013-07-06 09:15:00,
2013-07-06 04:25:00,73.0,61.4,29.86,SSE,158,7.0,11.0,67,0.00,,---,0.00,VWS V14.00,2013-07-06 09:25:00,
2013-07-06 04:30:00,73.0,61.4,29.86,SSE,158,7.0,13.0,67,0.00,,---,0.00,VWS V14.00,2013-07-06 09:30:00,
2013-07-06 04:40:00,73.0,61.4,29.85,SSE,158,6.0,11.0,67,0.00,,---,0.00,VWS V14.00,2013-07-06 09:40:00,
2013-07-06 04:45:00,73.0,61.4,29.85,SSE,158,7.0,12.0,67,0.00,,---,0.00,VWS V14.00,2013-07-06 09:45:00,
2013-07-06 04:55:00,72.8,61.2,29.86,SSE,158,7.0,12.0,67,0.00,,---,0.00,VWS V14.00,2013-07-06 09:55:00,
2013-07-06 05:00:00,72.7,61.5,29.85,SSE,158,7.0,10.0,68,0.00,,---,0.00,VWS V14.00,2013-07-06 10:00:00,
2013-07-06 05:10:00,72.5,61.3,29.85,SSE,158,7.0,12.0,68,0.00,,---,0.00,VWS V14.00,2013-07-06 10:10:00,
2013-07-06 05:20:00,72.3,61.2,29.85,SSE,158,7.0,11.0,68,0.00,,---,0.00,VWS V14.00,2013-07-06 10:20:00,
2013-07-06 05:25:00,72.1,61.0,29.85,SSE,158,6.0,10.0,68,0.00,,---,0.00,VWS V14.00,2013-07-06 10:25:00,
2013-07-06 05:30:00,72.0,60.9,29.85,SSE,158,5.0,9.0,68,0.00,,---,0.00,VWS V14.00,2013-07-06 10:30:00,
2013-07-06 05:35:00,71.9,61.2,29.85,SSE,158,4.0,9.0,69,0.00,,---,0.00,VWS V14.00,2013-07-06 10:35:00,
2013-07-06 05:50:00,71.6,60.9,29.85,SSE,158,4.0,7.0,69,0.00,,---,0.00,VWS V14.00,2013-07-06 10:50:00,
2013-07-06 05:55:00,71.5,60.8,29.85,SSE,158,3.0,7.0,69,0.00,,---,0.00,VWS V14.00,2013-07-06 10:55:00,
2013-07-06 06:15:00,71.3,60.6,29.86,SSE,158,3.0,7.0,69,0.00,,---,0.00,VWS V14.00,2013-07-06 11:15:00,
2013-07-06 06:30:00,71.0,60.7,29.87,SSE,158,2.0,9.0,70,0.00,,---,0.00,VWS V14.00,2013-07-06 11:30:00,
2013-07-06 06:35:00,70.9,60.6,29.87,SSE,158,2.0,5.0,70,0.00,,---,0.00,VWS V14.00,2013-07-06 11:35:00,
2013-07-06 06:45:00,70.8,60.5,29.87,SSE,158,0.0,2.0,70,0.00,,---,0.00,VWS V14.00,2013-07-06 11:45:00,
2013-07-06 06:50:00,70.8,60.5,29.88,SSE,158,0.0,5.0,70,0.00,,---,0.00,VWS V14.00,2013-07-06 11:50:00,
2013-07-06 07:25:00,70.7,61.6,29.89,SSE,158,0.0,3.0,73,0.00,,---,0.00,VWS V14.00,2013-07-06 12:25:00,
2013-07-06 07:35:00,71.2,61.7,29.88,SSE,158,1.0,5.0,72,0.00,,---,0.00,VWS V14.00,2013-07-06 12:35:00,
2013-07-06 07:40:00,71.5,62.0,29.89,SSE,158,3.0,5.0,72,0.00,,---,0.00,VWS V14.00,2013-07-06 12:40:00,
2013-07-06 07:55:00,72.5,62.2,29.89,SSE,158,3.0,5.0,70,0.00,,---,0.00,VWS V14.00,2013-07-06 12:55:00,
2013-07-06 08:00:00,72.9,62.5,29.89,SSE,158,3.0,7.0,70,0.00,,---,0.00,VWS V14.00,2013-07-06 13:00:00,
2013-07-06 08:05:00,73.3,62.5,29.89,SSE,158,3.0,7.0,69,0.00,,---,0.00,VWS V14.00,2013-07-06 13:05:00,
2013-07-06 08:10:00,73.8,62.6,29.89,SSE,158,3.0,9.0,68,0.00,,---,0.00,VWS V14.00,2013-07-06 13:10:00,
2013-07-06 08:15:00,74.2,62.5,29.90,SSE,158,4.0,8.0,67,0.00,,---,0.00,VWS V14.00,2013-07-06 13:15:00,
2013-07-06 08:20:00,74.7,62.6,29.90,SSE,158,3.0,6.0,66,0.00,,---,0.00,VWS V14.00,2013-07-06 13:20:00,
2013-07-06 08:25:00,75.1,62.5,29.90,SSE,158,6.0,12.0,65,0.00,,---,0.00,VWS V14.00,2013-07-06 13:25:00,
2013-07-06 08:30:00,75.6,62.6,29.90,SSE,158,7.0,12.0,64,0.00,,---,0.00,VWS V14.00,2013-07-06 13:30:00,
2013-07-06 08:40:00,76.4,62.4,29.91,SSE,158,8.0,13.0,62,0.00,,---,0.00,VWS V14.00,2013-07-06 13:40:00,
2013-07-06 08:50:00,77.1,63.1,29.91,SSE,158,8.0,14.0,62,0.00,,---,0.00,VWS V14.00,2013-07-06 13:50:00,
2013-07-06 09:00:00,77.7,63.2,29.91,SSE,158,6.0,10.0,61,0.00,,---,0.00,VWS V14.00,2013-07-06 14:00:00,
2013-07-06 09:05:00,78.1,63.1,29.91,SSE,158,7.0,13.0,60,0.00,,---,0.00,VWS V14.00,2013-07-06 14:05:00,
2013-07-06 09:10:00,78.4,63.4,29.91,SSE,158,8.0,14.0,60,0.00,,---,0.00,VWS V14.00,2013-07-06 14:10:00,
2013-07-06 09:15:00,78.6,63.1,29.91,SSE,158,9.0,14.0,59,0.00,,---,0.00,VWS V14.00,2013-07-06 14:15:00,
2013-07-06 09:20:00,78.7,63.7,29.91,SSE,158,8.0,12.0,60,0.00,,---,0.00,VWS V14.00,2013-07-06 14:20:00,
2013-07-06 09:25:00,79.0,63.5,29.90,South,180,9.0,15.0,59,0.00,,---,0.00,VWS V14.00,2013-07-06 14:25:00,
2013-07-06 09:30:00,79.4,63.3,29.90,SSE,158,7.0,13.0,58,0.00,,---,0.00,VWS V14.00,2013-07-06 14:30:00,
2013-07-06 09:35:00,79.6,63.5,29.90,SSE,158,8.0,14.0,58,0.00,,---,0.00,VWS V14.00,2013-07-06 14:35:00,
2013-07-06 09:45:00,80.1,63.5,29.90,SSE,158,7.0,13.0,57,0.00,,---,0.00,VWS V14.00,2013-07-06 14:45:00,
2013-07-06 09:55:00,80.8,63.7,29.90,SSE,158,8.0,12.0,56,0.00,,---,0.00,VWS V14.00,2013-07-06 14:55:00,
2013-07-06 10:05:00,81.3,63.6,29.90,SSE,158,7.0,12.0,55,0.00,,---,0.00,VWS V14.00,2013-07-06 15:05:00,
2013-07-06 10:10:00,81.6,63.9,29.90,SSE,158,7.0,13.0,55,0.00,,---,0.00,VWS V14.00,2013-07-06 15:10:00,
2013-07-06 10:40:00,83.0,64.7,29.89,SSE,158,7.0,14.0,54,0.00,,---,0.00,VWS V14.00,2013-07-06 15:40:00,
2013-07-06 10:45:00,83.6,65.2,29.90,SE,135,7.0,12.0,54,0.00,,---,0.00,VWS V14.00,2013-07-06 15:45:00,
2013-07-06 10:55:00,85.3,65.7,29.90,SE,135,8.0,13.0,52,0.00,,---,0.00,VWS V14.00,2013-07-06 15:55:00,
2013-07-06 11:00:00,85.9,66.2,29.90,SSE,158,9.0,13.0,52,0.00,,---,0.00,VWS V14.00,2013-07-06 16:00:00,
2013-07-06 11:05:00,86.1,66.4,29.90,SSE,158,7.0,15.0,52,0.00,,---,0.00,VWS V14.00,2013-07-06 16:05:00,
2013-07-06 11:10:00,86.3,65.5,29.90,SSE,158,9.0,16.0,50,0.00,,---,0.00,VWS V14.00,2013-07-06 16:10:00,
2013-07-06 11:15:00,86.2,66.0,29.90,SSE,158,7.0,12.0,51,0.00,,---,0.00,VWS V14.00,2013-07-06 16:15:00,
2013-07-06 11:25:00,86.3,66.1,29.90,SE,135,7.0,15.0,51,0.00,,---,0.00,VWS V14.00,2013-07-06 16:25:00,
2013-07-06 11:30:00,86.2,66.5,29.89,SE,135,6.0,11.0,52,0.00,,---,0.00,VWS V14.00,2013-07-06 16:30:00,
2013-07-06 11:45:00,85.3,65.7,29.88,SE,135,8.0,15.0,52,0.00,,---,0.00,VWS V14.00,2013-07-06 16:45:00,
2013-07-06 11:50:00,85.1,66.1,29.89,SE,135,8.0,14.0,53,0.00,,---,0.00,VWS V14.00,2013-07-06 16:50:00,
2013-07-06 11:55:00,84.9,65.9,29.89,SE,135,7.0,13.0,53,0.00,,---,0.00,VWS V14.00,2013-07-06 16:55:00,
2013-07-06 12:00:00,84.9,66.4,29.89,SE,135,7.0,12.0,54,0.00,,---,0.00,VWS V14.00,2013-07-06 17:00:00,
2013-07-06 12:05:00,85.2,66.2,29.89,SE,135,8.0,13.0,53,0.00,,---,0.00,VWS V14.00,2013-07-06 17:05:00,
2013-07-06 12:10:00,85.5,65.3,29.89,SE,135,10.0,15.0,51,0.00,,---,0.00,VWS V14.00,2013-07-06 17:10:00,
2013-07-06 12:20:00,85.7,66.6,29.89,SE,135,9.0,15.0,53,0.00,,---,0.00,VWS V14.00,2013-07-06 17:20:00,
2013-07-06 12:25:00,85.9,66.8,29.88,SE,135,9.0,16.0,53,0.00,,---,0.00,VWS V14.00,2013-07-06 17:25:00,
2013-07-06 12:35:00,86.2,67.1,29.88,SE,135,6.0,11.0,53,0.00,,---,0.00,VWS V14.00,2013-07-06 17:35:00,
2013-07-06 12:40:00,86.3,67.2,29.88,ESE,112,9.0,13.0,53,0.00,,---,0.00,VWS V14.00,2013-07-06 17:40:00,
2013-07-06 12:45:00,86.3,67.7,29.88,ESE,112,9.0,14.0,54,0.00,,---,0.00,VWS V14.00,2013-07-06 17:45:00,
2013-07-06 12:50:00,86.5,67.3,29.88,SE,135,9.0,13.0,53,0.00,,---,0.00,VWS V14.00,2013-07-06 17:50:00,
2013-07-06 12:55:00,86.7,67.5,29.87,SE,135,9.0,13.0,53,0.00,,---,0.00,VWS V14.00,2013-07-06 17:55:00,
2013-07-06 13:00:00,86.7,67.5,29.87,ESE,112,10.0,15.0,53,0.00,,---,0.00,VWS V14.00,2013-07-06 18:00:00,
2013-07-06 13:10:00,85.9,67.9,29.87,ESE,112,10.0,14.0,55,0.00,,---,0.00,VWS V14.00,2013-07-06 18:10:00,
2013-07-06 13:15:00,85.7,67.2,29.87,ESE,112,11.0,17.0,54,0.00,,---,0.00,VWS V14.00,2013-07-06 18:15:00,
2013-07-06 13:25:00,85.7,67.7,29.87,ESE,112,10.0,16.0,55,0.00,,---,0.00,VWS V14.00,2013-07-06 18:25:00,
2013-07-06 13:30:00,85.7,67.7,29.87,SE,135,10.0,16.0,55,0.00,,---,0.00,VWS V14.00,2013-07-06 18:30:00,
2013-07-06 13:35:00,85.8,67.2,29.87,ESE,112,13.0,19.0,54,0.00,,---,0.00,VWS V14.00,2013-07-06 18:35:00,
2013-07-06 13:50:00,86.8,68.2,29.87,SE,135,11.0,18.0,54,0.00,,---,0.00,VWS V14.00,2013-07-06 18:50:00,
2013-07-06 14:00:00,87.7,66.8,29.86,SE,135,14.0,22.0,50,0.00,,---,0.00,VWS V14.00,2013-07-06 19:00:00,
2013-07-06 14:05:00,87.6,67.2,29.86,SE,135,14.0,21.0,51,0.00,,---,0.00,VWS V14.00,2013-07-06 19:05:00,
2013-07-06 14:10:00,87.7,67.3,29.86,SE,135,11.0,19.0,51,0.00,,---,0.00,VWS V14.00,2013-07-06 19:10:00,
2013-07-06 14:20:00,88.8,67.8,29.86,SE,135,12.0,19.0,50,0.00,,---,0.00,VWS V14.00,2013-07-06 19:20:00,
2013-07-06 14:25:00,89.2,68.2,29.86,SE,135,15.0,21.0,50,0.00,,---,0.00,VWS V14.00,2013-07-06 19:25:00,
2013-07-06 14:40:00,89.6,67.9,29.85,SE,135,11.0,18.0,49,0.00,,---,0.00,VWS V14.00,2013-07-06 19:40:00,
2013-07-06 14:45:00,89.5,67.8,29.85,SE,135,12.0,17.0,49,0.00,,---,0.00,VWS V14.00,2013-07-06 19:45:00,
2013-07-06 15:05:00,88.8,67.2,29.85,SE,135,13.0,20.0,49,0.00,,---,0.00,VWS V14.00,2013-07-06 20:05:00,
2013-07-06 15:10:00,88.9,67.3,29.85,SE,135,10.0,17.0,49,0.00,,---,0.00,VWS V14.00,2013-07-06 20:10:00,
2013-07-06 15:15:00,88.9,66.7,29.85,SE,135,10.0,18.0,48,0.00,,---,0.00,VWS V14.00,2013-07-06 20:15:00,
2013-07-06 15:20:00,88.8,66.6,29.85,SSE,158,11.0,18.0,48,0.00,,---,0.00,VWS V14.00,2013-07-06 20:20:00,
2013-07-06 15:25:00,88.8,67.2,29.85,SE,135,10.0,17.0,49,0.00,,---,0.00,VWS V14.00,2013-07-06 20:25:00,
2013-07-06 15:35:00,88.7,67.1,29.85,SE,135,10.0,16.0,49,0.00,,---,0.00,VWS V14.00,2013-07-06 20:35:00,
2013-07-06 15:40:00,88.7,67.1,29.85,SE,135,11.0,16.0,49,0.00,,---,0.00,VWS V14.00,2013-07-06 20:40:00,
2013-07-06 15:50:00,88.6,67.0,29.84,SE,135,12.0,19.0,49,0.00,,---,0.00,VWS V14.00,2013-07-06 20:50:00,
2013-07-06 15:55:00,88.3,66.7,29.84,SE,135,10.0,16.0,49,0.00,,---,0.00,VWS V14.00,2013-07-06 20:55:00,
2013-07-06 16:00:00,88.2,66.7,29.84,SE,135,11.0,15.0,49,0.00,,---,0.00,VWS V14.00,2013-07-06 21:00:00,
2013-07-06 16:05:00,88.1,67.1,29.84,SE,135,7.0,14.0,50,0.00,,---,0.00,VWS V14.00,2013-07-06 21:05:00,
2013-07-06 16:15:00,87.9,66.9,29.84,SE,135,9.0,13.0,50,0.00,,---,0.00,VWS V14.00,2013-07-06 21:15:00,
2013-07-06 16:20:00,87.9,66.9,29.84,SE,135,9.0,15.0,50,0.00,,---,0.00,VWS V14.00,2013-07-06 21:20:00,
2013-07-06 16:35:00,87.4,66.5,29.84,SE,135,9.0,14.0,50,0.00,,---,0.00,VWS V14.00,2013-07-06 21:35:00,
2013-07-06 16:45:00,87.3,67.0,29.84,ESE,112,8.0,13.0,51,0.00,,---,0.00,VWS V14.00,2013-07-06 21:45:00,
2013-07-06 17:00:00,87.1,67.4,29.84,ESE,112,8.0,12.0,52,0.00,,---,0.00,VWS V14.00,2013-07-06 22:00:00,
2013-07-06 17:05:00,87.0,67.3,29.84,ESE,112,8.0,12.0,52,0.00,,---,0.00,VWS V14.00,2013-07-06 22:05:00,
2013-07-06 17:10:00,86.9,67.7,29.85,SE,135,7.0,12.0,53,0.00,,---,0.00,VWS V14.00,2013-07-06 22:10:00,
2013-07-06 17:25:00,86.8,67.6,29.85,ESE,112,5.0,11.0,53,0.00,,---,0.00,VWS V14.00,2013-07-06 22:25:00,
2013-07-06 17:30:00,86.7,67.5,29.84,ESE,112,7.0,13.0,53,0.00,,---,0.00,VWS V14.00,2013-07-06 22:30:00,
2013-07-06 17:40:00,86.6,67.4,29.84,ESE,112,8.0,12.0,53,0.00,,---,0.00,VWS V14.00,2013-07-06 22:40:00,
2013-07-06 18:00:00,86.1,67.5,29.84,ESE,112,6.0,9.0,54,0.00,,---,0.00,VWS V14.00,2013-07-06 23:00:00,
2013-07-06 18:10:00,86.0,68.0,29.84,ESE,112,5.0,8.0,55,0.00,,---,0.00,VWS V14.00,2013-07-06 23:10:00,
2013-07-06 18:15:00,86.0,68.0,29.84,ESE,112,5.0,9.0,55,0.00,,---,0.00,VWS V14.00,2013-07-06 23:15:00,
2013-07-06 18:20:00,86.1,68.1,29.83,ESE,112,6.0,10.0,55,0.00,,---,0.00,VWS V14.00,2013-07-06 23:20:00,
2013-07-06 18:25:00,86.1,68.1,29.84,ESE,112,7.0,10.0,55,0.00,,---,0.00,VWS V14.00,2013-07-06 23:25:00,
2013-07-06 18:40:00,86.0,68.0,29.83,ESE,112,6.0,9.0,55,0.00,,---,0.00,VWS V14.00,2013-07-06 23:40:00,
2013-07-06 18:50:00,85.8,67.8,29.83,ESE,112,7.0,12.0,55,0.00,,---,0.00,VWS V14.00,2013-07-06 23:50:00,
2013-07-06 19:15:00,85.9,66.8,29.84,ESE,112,6.0,11.0,53,0.00,,---,0.00,VWS V14.00,2013-07-07 00:15:00,
2013-07-06 19:25:00,85.7,66.6,29.84,ESE,112,6.0,9.0,53,0.00,,---,0.00,VWS V14.00,2013-07-07 00:25:00,
2013-07-06 19:30:00,85.5,66.4,29.84,ESE,112,6.0,11.0,53,0.00,,---,0.00,VWS V14.00,2013-07-07 00:30:00,
2013-07-06 19:45:00,84.9,66.4,29.84,ESE,112,5.0,7.0,54,0.00,,---,0.00,VWS V14.00,2013-07-07 00:45:00,
2013-07-06 19:55:00,84.5,66.6,29.84,ESE,112,5.0,7.0,55,0.00,,---,0.00,VWS V14.00,2013-07-07 00:55:00,
2013-07-06 20:05:00,84.0,66.6,29.84,ESE,112,5.0,6.0,56,0.00,,---,0.00,VWS V14.00,2013-07-07 01:05:00,
2013-07-06 20:20:00,83.3,66.0,29.85,ESE,112,4.0,6.0,56,0.00,,---,0.00,VWS V14.00,2013-07-07 01:20:00,
2013-07-06 20:25:00,83.2,66.4,29.85,ESE,112,4.0,7.0,57,0.00,,---,0.00,VWS V14.00,2013-07-07 01:25:00,
2013-07-06 20:50:00,82.3,65.6,29.85,ESE,112,2.0,4.0,57,0.00,,---,0.00,VWS V14.00,2013-07-07 01:50:00,
2013-07-06 21:00:00,82.2,65.5,29.85,ESE,112,2.0,5.0,57,0.00,,---,0.00,VWS V14.00,2013-07-07 02:00:00,
2013-07-06 21:05:00,81.8,65.6,29.85,ESE,107,3.0,5.0,58,0.00,,---,0.00,VWS V14.00,2013-07-07 02:05:00,
2013-07-06 21:10:00,81.6,65.4,29.85,ESE,107,2.0,5.0,58,0.00,,---,0.00,VWS V14.00,2013-07-07 02:10:00,
2013-07-06 21:15:00,81.5,65.8,29.85,ESE,107,0.0,3.0,59,0.00,,---,0.00,VWS V14.00,2013-07-07 02:15:00,
2013-07-06 21:20:00,81.3,65.6,29.86,ESE,107,0.0,4.0,59,0.00,,---,0.00,VWS V14.00,2013-07-07 02:20:00,
2013-07-06 21:25:00,81.1,65.4,29.86,ESE,107,0.0,3.0,59,0.00,,---,0.00,VWS V14.00,2013-07-07 02:25:00,
2013-07-06 21:26:00,81.1,65.4,29.86,ESE,107,0.0,3.0,59,0.00,,---,0.00,VWS V14.00,2013-07-07 02:26:00,
2013-07-06 21:30:00,80.9,65.2,29.86,ESE,107,0.0,2.0,59,0.00,,---,0.00,VWS V14.00,2013-07-07 02:30:00,
2013-07-06 21:31:00,80.9,65.2,29.86,ESE,107,0.0,2.0,59,0.00,,---,0.00,VWS V14.00,2013-07-07 02:31:00,
2013-07-06 21:36:00,80.7,65.5,29.86,ESE,107,0.0,0.0,60,0.00,,---,0.00,VWS V14.00,2013-07-07 02:36:00,
2013-07-06 21:41:00,80.5,65.3,29.87,ESE,107,0.0,0.0,60,0.00,,---,0.00,VWS V14.00,2013-07-07 02:41:00,
2013-07-06 21:46:00,80.4,65.7,29.87,ESE,107,0.0,0.0,61,0.00,,---,0.00,VWS V14.00,2013-07-07 02:46:00,
2013-07-06 21:51:00,80.2,65.5,29.87,ESE,107,0.0,0.0,61,0.00,,---,0.00,VWS V14.00,2013-07-07 02:51:00,
2013-07-06 21:57:00,80.0,65.4,29.87,ESE,107,0.0,0.0,61,0.00,,---,0.00,VWS V14.00,2013-07-07 02:57:00,
2013-07-06 22:02:00,79.9,65.7,29.87,ESE,107,1.0,3.0,62,0.00,,---,0.00,VWS V14.00,2013-07-07 03:02:00,
2013-07-06 22:07:00,79.8,65.6,29.87,ESE,107,0.0,3.0,62,0.00,,---,0.00,VWS V14.00,2013-07-07 03:07:00,
2013-07-06 22:12:00,79.6,65.4,29.87,ESE,107,0.0,0.0,62,0.00,,---,0.00,VWS V14.00,2013-07-07 03:12:00,
2013-07-06 22:17:00,79.5,65.8,29.87,ESE,107,0.0,0.0,63,0.00,,---,0.00,VWS V14.00,2013-07-07 03:17:00,
2013-07-06 22:22:00,79.3,65.6,29.88,ESE,107,0.0,0.0,63,0.00,,---,0.00,VWS V14.00,2013-07-07 03:22:00,
2013-07-06 22:27:00,79.2,65.5,29.88,ESE,107,0.0,0.0,63,0.00,,---,0.00,VWS V14.00,2013-07-07 03:27:00,
2013-07-06 22:33:00,78.9,65.2,29.88,ESE,107,0.0,0.0,63,0.00,,---,0.00,VWS V14.00,2013-07-07 03:33:00,
2013-07-06 22:38:00,78.8,65.6,29.88,ESE,107,2.0,4.0,64,0.00,,---,0.00,VWS V14.00,2013-07-07 03:38:00,
2013-07-06 22:43:00,78.7,65.5,29.88,ESE,107,3.0,4.0,64,0.00,,---,0.00,VWS V14.00,2013-07-07 03:43:00,
2013-07-06 22:48:00,78.6,65.4,29.88,ESE,107,2.0,3.0,64,0.00,,---,0.00,VWS V14.00,2013-07-07 03:48:00,
2013-07-06 22:53:00,78.3,65.6,29.88,ESE,107,2.0,3.0,65,0.00,,---,0.00,VWS V14.00,2013-07-07 03:53:00,
2013-07-06 22:58:00,78.1,65.4,29.88,ESE,107,0.0,0.0,65,0.00,,---,0.00,VWS V14.00,2013-07-07 03:58:00,
2013-07-06 23:01:00,78.1,65.4,29.88,ESE,107,0.0,0.0,65,0.00,,---,0.00,VWS V14.00,2013-07-07 04:01:00,
2013-07-06 23:02:00,78.1,65.4,29.88,ESE,107,0.0,0.0,65,0.00,,---,0.00,VWS V14.00,2013-07-07 04:02:00,
2013-07-06 23:07:00,77.9,65.2,29.88,ESE,107,2.0,2.0,65,0.00,,---,0.00,VWS V14.00,2013-07-07 04:07:00,
2013-07-06 23:12:00,77.7,65.4,29.88,ESE,107,0.0,1.0,66,0.00,,---,0.00,VWS V14.00,2013-07-07 04:12:00,
2013-07-06 23:17:00,77.5,65.3,29.88,ESE,107,0.0,0.0,66,0.00,,---,0.00,VWS V14.00,2013-07-07 04:17:00,
2013-07-06 23:22:00,77.3,65.5,29.88,ESE,107,0.0,0.0,67,0.00,,---,0.00,VWS V14.00,2013-07-07 04:22:00,
2013-07-06 23:27:00,77.1,65.3,29.89,ESE,107,0.0,0.0,67,0.00,,---,0.00,VWS V14.00,2013-07-07 04:27:00,
2013-07-06 23:32:00,76.9,65.1,29.89,ESE,107,0.0,0.0,67,0.00,,---,0.00,VWS V14.00,2013-07-07 04:32:00,
2013-07-06 23:37:00,76.7,65.3,29.89,ESE,107,0.0,0.0,68,0.00,,---,0.00,VWS V14.00,2013-07-07 04:37:00,
2013-07-06 23:42:00,76.7,65.3,29.89,ESE,107,0.0,0.0,68,0.00,,---,0.00,VWS V14.00,2013-07-07 04:42:00,
2013-07-06 23:47:00,76.5,65.2,29.89,ESE,107,0.0,0.0,68,0.00,,---,0.00,VWS V14.00,2013-07-07 04:47:00,
2013-07-06 23:52:00,76.1,65.2,29.89,ESE,107,0.0,0.0,69,0.00,,---,0.00,VWS V14.00,2013-07-07 04:52:00,
2013-07-06 23:57:00,75.5,65.0,29.90,ESE,107,0.0,0.0,70,0.00,,---,0.00,VWS V14.00,2013-07-07 04:57:00,